createdAt,value
2018-05-04T00:02:09.743Z,79.00
2018-05-04T00:04:37.200Z,78.80
2018-05-04T00:07:04.673Z,79.00
2018-05-04T00:09:32.117Z,79.00
2018-05-04T00:11:59.570Z,78.90
2018-05-04T00:14:27.009Z,79.20
2018-05-04T00:16:54.464Z,79.30
2018-05-04T00:19:21.897Z,79.50
2018-05-04T00:21:50.212Z,79.90
2018-05-04T00:24:17.663Z,79.80
2018-05-04T00:26:45.164Z,79.90
2018-05-04T00:29:12.589Z,80.10
2018-05-04T00:31:40.030Z,80.00
2018-05-04T00:34:07.494Z,80.00
2018-05-04T00:36:34.944Z,80.00
2018-05-04T00:39:02.393Z,80.10
2018-05-04T00:41:30.597Z,80.40
2018-05-04T00:43:58.079Z,80.40
2018-05-04T00:46:25.517Z,80.50
2018-05-04T00:48:52.982Z,80.40
2018-05-04T00:51:20.458Z,80.50
2018-05-04T00:53:59.786Z,80.70
2018-05-04T00:56:27.232Z,80.70
2018-05-04T00:58:54.689Z,80.70
2018-05-04T01:01:22.129Z,80.90
2018-05-04T01:03:49.577Z,81.00
2018-05-04T01:06:17.034Z,81.10
2018-05-04T01:08:44.613Z,81.20
2018-05-04T01:11:12.816Z,81.30
2018-05-04T01:13:40.243Z,81.30
2018-05-04T01:16:07.713Z,81.30
2018-05-04T01:18:35.184Z,81.20
2018-05-04T01:21:02.638Z,81.20
2018-05-04T01:23:30.085Z,81.20
2018-05-04T01:25:57.533Z,81.40
2018-05-04T01:28:25.000Z,81.30
2018-05-04T01:30:52.453Z,81.40
2018-05-04T01:33:19.913Z,81.50
2018-05-04T01:35:47.365Z,81.60
2018-05-04T01:38:14.821Z,81.70
2018-05-04T01:40:42.282Z,81.70
2018-05-04T01:43:09.741Z,81.90
2018-05-04T01:45:37.217Z,82.00
2018-05-04T01:48:04.673Z,82.00
2018-05-04T01:50:32.119Z,82.10
2018-05-04T01:52:59.568Z,82.20
2018-05-04T01:55:27.023Z,82.10
2018-05-04T01:57:54.461Z,82.10
2018-05-04T02:00:21.992Z,82.10
2018-05-04T02:02:49.385Z,82.20
2018-05-04T02:05:16.853Z,82.20
2018-05-04T02:07:44.355Z,82.90
2018-05-04T02:10:11.765Z,82.30
2018-05-04T02:12:39.213Z,82.30
2018-05-04T02:15:06.675Z,82.40
2018-05-04T02:17:34.117Z,82.50
2018-05-04T02:20:01.593Z,82.50
2018-05-04T02:22:29.041Z,82.70
2018-05-04T02:24:56.493Z,82.70
2018-05-04T02:27:23.946Z,82.70
2018-05-04T02:29:51.421Z,82.70
2018-05-04T02:32:18.873Z,82.70
2018-05-04T02:34:46.332Z,82.70
2018-05-04T02:37:13.809Z,82.60
2018-05-04T02:39:41.328Z,82.80
2018-05-04T02:42:08.784Z,82.80
2018-05-04T02:44:36.256Z,82.80
2018-05-04T02:47:03.740Z,83.00
2018-05-04T02:49:31.237Z,83.30
2018-05-04T02:51:58.821Z,83.30
2018-05-04T02:54:26.292Z,83.30
2018-05-04T02:56:53.762Z,83.30
2018-05-04T02:59:21.258Z,83.20
2018-05-04T03:01:48.720Z,83.20
2018-05-04T03:04:16.237Z,83.20
2018-05-04T03:06:43.716Z,83.20
2018-05-04T03:09:11.946Z,83.30
2018-05-04T03:11:39.413Z,83.10
2018-05-04T03:14:06.884Z,83.10
2018-05-04T03:16:34.338Z,83.20
2018-05-04T03:19:01.807Z,83.20
2018-05-04T03:21:29.280Z,83.20
2018-05-04T03:23:56.736Z,83.20
2018-05-04T03:26:24.977Z,83.60
2018-05-04T03:28:52.420Z,83.50
2018-05-04T03:31:19.900Z,83.50
2018-05-04T03:33:47.357Z,83.60
2018-05-04T03:36:14.820Z,83.70
2018-05-04T03:38:42.288Z,83.70
2018-05-04T03:41:10.504Z,83.90
2018-05-04T03:43:37.984Z,83.80
2018-05-04T03:46:05.443Z,83.80
2018-05-04T03:48:32.912Z,83.90
2018-05-04T03:51:00.398Z,84.00
2018-05-04T03:53:27.852Z,84.10
2018-05-04T03:55:55.321Z,84.20
2018-05-04T03:58:34.453Z,84.50
2018-05-04T04:01:13.851Z,84.40
2018-05-04T04:03:53.014Z,84.50
2018-05-04T04:06:21.260Z,84.50
2018-05-04T04:08:48.736Z,84.50
2018-05-04T04:11:16.992Z,84.70
2018-05-04T04:13:44.508Z,84.70
2018-05-04T04:16:11.939Z,84.70
2018-05-04T04:18:40.184Z,84.90
2018-05-04T04:21:07.656Z,84.80
2018-05-04T04:23:35.136Z,84.90
2018-05-04T04:26:03.377Z,84.90
2018-05-04T04:28:31.711Z,84.90
2018-05-04T04:30:59.201Z,84.90
2018-05-04T04:33:27.451Z,85.00
2018-05-04T04:35:54.938Z,85.00
2018-05-04T04:38:22.389Z,85.00
2018-05-04T04:40:49.887Z,85.10
2018-05-04T04:43:18.129Z,85.60
2018-05-04T04:45:45.619Z,85.50
2018-05-04T04:48:13.099Z,85.60
2018-05-04T04:50:40.548Z,85.80
2018-05-04T04:53:08.023Z,85.80
2018-05-04T04:55:35.475Z,85.90
2018-05-04T04:58:02.949Z,86.00
2018-05-04T05:00:30.402Z,86.20
2018-05-04T05:02:57.901Z,86.30
2018-05-04T05:05:25.356Z,86.50
2018-05-04T05:07:52.856Z,86.60
2018-05-04T05:10:20.319Z,86.70
2018-05-04T05:12:48.913Z,86.80
2018-05-04T05:15:16.361Z,87.20
2018-05-04T05:17:43.836Z,87.40
2018-05-04T05:20:11.323Z,87.40
2018-05-04T05:22:38.797Z,87.40
2018-05-04T05:25:07.025Z,87.60
2018-05-04T05:27:34.483Z,87.60
2018-05-04T05:30:01.966Z,87.60
2018-05-04T05:32:30.362Z,87.80
2018-05-04T05:34:58.577Z,87.90
2018-05-04T05:37:26.043Z,87.90
2018-05-04T05:39:53.516Z,88.00
2018-05-04T05:42:21.127Z,88.10
2018-05-04T05:44:48.561Z,88.20
2018-05-04T05:47:16.012Z,88.40
2018-05-04T05:49:43.497Z,88.50
2018-05-04T05:52:10.979Z,88.70
2018-05-04T05:54:39.278Z,88.90
2018-05-04T05:57:06.660Z,88.90
2018-05-04T05:59:34.137Z,89.00
2018-05-04T06:02:01.623Z,89.00
2018-05-04T06:04:29.089Z,89.50
2018-05-04T06:06:57.154Z,89.80
2018-05-04T06:09:24.660Z,90.00
2018-05-04T06:11:52.087Z,90.10
2018-05-04T06:14:19.604Z,90.00
2018-05-04T06:16:47.177Z,90.00
2018-05-04T06:19:14.621Z,89.90
2018-05-04T06:21:42.089Z,90.00
2018-05-04T06:24:09.547Z,90.00
2018-05-04T06:26:37.064Z,90.00
2018-05-04T06:29:05.280Z,90.10
2018-05-04T06:31:32.764Z,90.10
2018-05-04T06:34:00.208Z,90.10
2018-05-04T06:36:27.732Z,89.60
2018-05-04T06:38:55.215Z,89.10
2018-05-04T06:41:22.685Z,88.40
2018-05-04T06:43:50.141Z,87.60
2018-05-04T06:46:17.615Z,87.20
2018-05-04T06:48:45.123Z,86.60
2018-05-04T06:51:12.594Z,86.00
2018-05-04T06:53:40.062Z,85.70
2018-05-04T06:56:07.533Z,85.10
2018-05-04T06:58:35.008Z,84.40
2018-05-04T07:01:02.468Z,84.00
2018-05-04T07:03:29.988Z,83.70
2018-05-04T07:05:57.436Z,82.30
2018-05-04T07:08:24.900Z,81.70
2018-05-04T07:10:52.408Z,81.10
2018-05-04T07:13:19.888Z,79.00
2018-05-04T07:15:48.112Z,74.50
2018-05-04T07:18:15.570Z,74.40
2018-05-04T07:20:43.051Z,72.30
2018-05-04T07:23:10.500Z,70.10
2018-05-04T07:25:37.968Z,70.00
2018-05-04T07:28:05.421Z,68.70
2018-05-04T07:30:32.905Z,68.40
2018-05-04T07:33:01.136Z,66.80
2018-05-04T07:35:28.601Z,66.80
2018-05-04T07:37:56.060Z,67.10
2018-05-04T07:40:23.512Z,66.40
2018-05-04T07:42:50.985Z,65.20
2018-05-04T07:45:18.448Z,65.30
2018-05-04T07:47:46.695Z,65.20
2018-05-04T07:50:14.176Z,65.20
2018-05-04T07:52:41.708Z,64.10
2018-05-04T07:55:09.253Z,64.60
2018-05-04T07:57:36.649Z,63.70
2018-05-04T08:00:04.124Z,63.20
2018-05-04T08:02:32.344Z,61.30
2018-05-04T08:04:59.832Z,61.20
2018-05-04T08:07:27.292Z,61.10
2018-05-04T08:09:54.773Z,59.30
2018-05-04T08:12:22.996Z,59.30
2018-05-04T08:14:50.512Z,59.30
2018-05-04T08:17:17.971Z,58.90
2018-05-04T08:19:45.432Z,58.90
2018-05-04T08:22:12.937Z,59.20
2018-05-04T08:24:40.392Z,58.50
2018-05-04T08:27:07.860Z,57.60
2018-05-04T08:29:35.407Z,57.30
2018-05-04T08:32:02.856Z,57.30
2018-05-04T08:34:30.336Z,57.30
2018-05-04T08:36:57.800Z,57.30
2018-05-04T08:39:26.062Z,56.20
2018-05-04T08:41:53.620Z,57.00
2018-05-04T08:44:21.076Z,55.80
2018-05-04T08:46:48.622Z,55.40
2018-05-04T08:49:16.076Z,54.50
2018-05-04T08:51:43.524Z,54.70
2018-05-04T08:54:10.984Z,54.50
2018-05-04T08:56:38.479Z,54.60
2018-05-04T08:59:05.948Z,56.50
2018-05-04T09:01:34.190Z,57.60
2018-05-04T09:04:01.661Z,57.50
2018-05-04T09:06:29.140Z,55.40
2018-05-04T09:08:57.364Z,52.80
2018-05-04T09:11:24.860Z,52.70
2018-05-04T09:13:54.175Z,51.20
2018-05-04T09:16:22.539Z,49.90
2018-05-04T09:18:50.012Z,49.80
2018-05-04T09:21:18.249Z,47.60
2018-05-04T09:23:45.720Z,47.60
2018-05-04T09:26:13.192Z,47.50
2018-05-04T09:28:40.661Z,45.90
2018-05-04T09:31:08.104Z,43.00
2018-05-04T09:33:35.572Z,43.10
2018-05-04T09:36:03.031Z,43.40
2018-05-04T09:38:30.669Z,43.40
2018-05-04T09:40:58.112Z,43.00
2018-05-04T09:43:25.647Z,42.20
2018-05-04T09:45:53.031Z,40.80
2018-05-04T09:48:21.289Z,38.50
2018-05-04T09:50:48.758Z,38.30
2018-05-04T09:53:16.233Z,37.40
2018-05-04T09:55:43.688Z,37.10
2018-05-04T09:58:11.236Z,37.20
2018-05-04T10:00:38.704Z,36.30
2018-05-04T10:03:06.253Z,36.60
2018-05-04T10:05:33.814Z,36.20
2018-05-04T10:08:01.296Z,35.30
2018-05-04T10:10:29.508Z,36.50
2018-05-04T10:12:57.116Z,36.40
2018-05-04T10:15:24.589Z,35.40
2018-05-04T10:17:52.840Z,34.60
2018-05-04T10:20:20.309Z,34.50
2018-05-04T10:22:47.788Z,33.30
2018-05-04T10:25:15.236Z,33.70
2018-05-04T10:27:42.700Z,33.70
2018-05-04T10:30:10.169Z,33.60
2018-05-04T10:32:37.660Z,33.40
2018-05-04T10:35:05.150Z,33.60
2018-05-04T10:37:34.451Z,33.70
2018-05-04T10:40:02.116Z,33.60
2018-05-04T10:42:30.359Z,34.30
2018-05-04T10:44:57.843Z,34.10
2018-05-04T10:47:25.299Z,33.50
2018-05-04T10:49:52.758Z,33.50
2018-05-04T10:52:20.240Z,33.30
2018-05-04T10:54:48.464Z,32.10
2018-05-04T10:57:15.966Z,32.10
2018-05-04T10:59:43.412Z,31.30
2018-05-04T11:02:10.901Z,30.50
2018-05-04T11:04:38.376Z,29.60
2018-05-04T11:07:05.860Z,29.30
2018-05-04T11:09:33.321Z,28.70
2018-05-04T11:12:00.817Z,29.10
2018-05-04T11:14:28.249Z,29.40
2018-05-04T11:16:55.715Z,29.80
2018-05-04T11:19:23.247Z,29.50
2018-05-04T11:21:50.792Z,28.80
2018-05-04T11:24:18.281Z,29.00
2018-05-04T11:26:45.828Z,28.60
2018-05-04T11:29:13.313Z,28.80
2018-05-04T11:31:41.532Z,28.40
2018-05-04T11:34:09.162Z,28.40
2018-05-04T11:36:36.621Z,28.30
2018-05-04T11:39:04.250Z,28.10
2018-05-04T11:41:31.717Z,27.40
2018-05-04T11:43:59.197Z,27.50
2018-05-04T11:46:26.654Z,27.20
2018-05-04T11:48:54.124Z,26.70
2018-05-04T11:51:23.297Z,26.30
2018-05-04T11:53:51.536Z,25.50
2018-05-04T11:56:19.017Z,25.40
2018-05-04T11:58:46.496Z,25.30
2018-05-04T12:01:13.956Z,25.80
2018-05-04T12:03:41.575Z,26.30
2018-05-04T12:06:09.992Z,25.90
2018-05-04T12:08:37.677Z,24.90
2018-05-04T12:11:05.179Z,24.60
2018-05-04T12:13:32.651Z,24.20
2018-05-04T12:16:00.132Z,24.20
2018-05-04T12:18:27.717Z,24.40
2018-05-04T12:20:55.170Z,24.50
2018-05-04T12:23:22.645Z,24.20
2018-05-04T12:25:50.178Z,24.60
2018-05-04T12:28:17.700Z,24.60
2018-05-04T12:30:45.272Z,23.70
2018-05-04T12:33:13.513Z,23.20
2018-05-04T12:35:41.001Z,23.20
2018-05-04T12:38:09.275Z,23.90
2018-05-04T12:40:36.793Z,23.90
2018-05-04T12:43:04.251Z,23.40
2018-05-04T12:45:31.893Z,22.80
2018-05-04T12:47:59.369Z,22.50
2018-05-04T12:50:26.842Z,23.10
2018-05-04T12:52:54.329Z,22.70
2018-05-04T12:55:21.796Z,22.90
2018-05-04T12:57:50.013Z,22.50
2018-05-04T13:00:17.500Z,22.50
2018-05-04T13:02:44.952Z,22.80
2018-05-04T13:05:12.427Z,23.00
2018-05-04T13:07:39.904Z,22.80
2018-05-04T13:10:08.161Z,22.60
2018-05-04T13:12:35.624Z,22.60
2018-05-04T13:15:03.884Z,22.40
2018-05-04T13:17:31.334Z,21.90
2018-05-04T13:19:58.817Z,21.80
2018-05-04T13:22:26.272Z,22.10
2018-05-04T13:24:54.530Z,23.60
2018-05-04T13:27:21.986Z,23.60
2018-05-04T13:29:49.460Z,23.50
2018-05-04T13:32:16.916Z,23.10
2018-05-04T13:34:45.160Z,23.00
2018-05-04T13:37:12.634Z,23.00
2018-05-04T13:39:40.112Z,22.20
2018-05-04T13:42:07.564Z,22.30
2018-05-04T13:44:35.123Z,22.20
2018-05-04T13:47:02.505Z,22.70
2018-05-04T13:49:30.179Z,22.60
2018-05-04T13:51:57.641Z,23.20
2018-05-04T13:54:25.224Z,22.50
2018-05-04T13:56:52.687Z,22.40
2018-05-04T13:59:20.164Z,22.60
2018-05-04T14:01:47.664Z,22.00
2018-05-04T14:04:15.118Z,21.70
2018-05-04T14:06:42.568Z,21.50
2018-05-04T14:09:11.930Z,22.40
2018-05-04T14:11:39.396Z,22.40
2018-05-04T14:14:06.868Z,21.90
2018-05-04T14:16:34.323Z,21.90
2018-05-04T14:19:02.560Z,22.60
2018-05-04T14:21:30.024Z,22.50
2018-05-04T14:23:57.529Z,22.50
2018-05-04T14:26:25.926Z,22.10
2018-05-04T14:28:53.368Z,22.00
2018-05-04T14:31:20.840Z,22.40
2018-05-04T14:33:48.290Z,22.90
2018-05-04T14:36:15.755Z,23.10
2018-05-04T14:38:43.213Z,22.90
2018-05-04T14:41:10.700Z,23.40
2018-05-04T14:43:38.214Z,24.10
2018-05-04T14:46:05.688Z,24.60
2018-05-04T14:48:33.151Z,24.80
2018-05-04T14:51:00.604Z,25.60
2018-05-04T14:53:28.089Z,25.90
2018-05-04T14:55:55.548Z,27.00
2018-05-04T14:58:23.028Z,27.10
2018-05-04T15:00:51.267Z,27.60
2018-05-04T15:03:18.739Z,27.70
2018-05-04T15:05:46.222Z,28.50
2018-05-04T15:08:14.468Z,28.90
2018-05-04T15:10:42.698Z,28.20
2018-05-04T15:13:10.144Z,28.10
2018-05-04T15:15:37.633Z,28.60
2018-05-04T15:18:05.131Z,28.50
2018-05-04T15:20:32.565Z,28.70
2018-05-04T15:23:00.021Z,29.30
2018-05-04T15:25:27.501Z,29.50
2018-05-04T15:27:54.986Z,29.50
2018-05-04T15:30:22.467Z,29.70
2018-05-04T15:32:50.132Z,29.50
2018-05-04T15:35:17.608Z,29.90
2018-05-04T15:37:45.082Z,29.70
2018-05-04T15:40:12.544Z,30.20
2018-05-04T15:42:40.000Z,30.80
2018-05-04T15:45:07.484Z,30.50
2018-05-04T15:47:35.699Z,31.50
2018-05-04T15:50:08.852Z,31.30
2018-05-04T15:52:36.303Z,31.80
2018-05-04T15:55:04.715Z,31.30
2018-05-04T15:57:32.196Z,31.20
2018-05-04T15:59:59.903Z,31.50
2018-05-04T16:02:27.295Z,31.90
2018-05-04T16:04:54.773Z,32.20
2018-05-04T16:07:22.257Z,32.00
2018-05-04T16:09:49.713Z,31.90
2018-05-04T16:12:17.373Z,32.00
2018-05-04T16:14:44.932Z,32.90
2018-05-04T16:17:13.167Z,33.50
2018-05-04T16:19:40.639Z,32.90
2018-05-04T16:22:08.256Z,32.90
2018-05-04T16:24:35.661Z,32.90
2018-05-04T16:27:06.154Z,32.50
2018-05-04T16:29:33.726Z,32.60
2018-05-04T16:32:01.192Z,32.40
2018-05-04T16:34:28.648Z,32.80
2018-05-04T16:36:56.116Z,33.30
2018-05-04T16:39:23.576Z,32.60
2018-05-04T16:41:51.823Z,33.70
2018-05-04T16:44:19.298Z,32.90
2018-05-04T16:46:52.523Z,33.40
2018-05-04T16:49:26.446Z,33.40
2018-05-04T16:51:53.932Z,33.10
2018-05-04T16:54:21.499Z,33.70
2018-05-04T16:56:48.957Z,34.20
2018-05-04T16:59:16.464Z,34.40
2018-05-04T17:01:45.425Z,34.80
2018-05-04T17:04:12.883Z,34.70
2018-05-04T17:06:40.358Z,36.50
2018-05-04T17:09:07.862Z,38.40
2018-05-04T17:11:35.268Z,39.50
2018-05-04T17:14:02.720Z,40.30
2018-05-04T17:16:30.202Z,41.00
2018-05-04T17:18:57.666Z,41.70
2018-05-04T17:21:25.140Z,41.80
2018-05-04T17:23:53.362Z,41.90
2018-05-04T17:26:20.841Z,41.80
2018-05-04T17:28:48.316Z,41.90
2018-05-04T17:31:16.541Z,42.60
2018-05-04T17:33:44.003Z,42.60
2018-05-04T17:36:11.460Z,43.20
2018-05-04T17:38:38.939Z,43.20
2018-05-04T17:41:06.439Z,43.70
2018-05-04T17:43:34.677Z,44.20
2018-05-04T17:46:02.191Z,44.20
2018-05-04T17:48:29.750Z,44.30
2018-05-04T17:50:57.924Z,44.70
2018-05-04T17:53:25.384Z,44.70
2018-05-04T17:55:52.857Z,45.10
2018-05-04T17:58:20.333Z,45.40
2018-05-04T18:00:48.584Z,46.00
2018-05-04T18:03:16.063Z,46.00
2018-05-04T18:05:43.508Z,46.50
2018-05-04T18:08:10.965Z,46.20
2018-05-04T18:10:38.440Z,46.00
2018-05-04T18:13:05.889Z,46.20
2018-05-04T18:15:33.365Z,46.20
2018-05-04T18:18:02.372Z,46.80
2018-05-04T18:20:30.015Z,46.60
2018-05-04T18:22:57.464Z,46.40
2018-05-04T18:25:25.740Z,46.70
2018-05-04T18:27:53.227Z,46.70
2018-05-04T18:30:20.687Z,46.60
2018-05-04T18:32:48.910Z,47.40
2018-05-04T18:35:16.478Z,47.40
2018-05-04T18:37:43.927Z,47.80
2018-05-04T18:40:11.406Z,48.50
2018-05-04T18:42:38.956Z,48.50
2018-05-04T18:45:06.455Z,48.40
2018-05-04T18:47:34.697Z,48.50
2018-05-04T18:50:02.188Z,48.50
2018-05-04T18:52:30.464Z,48.60
2018-05-04T18:54:57.920Z,48.60
2018-05-04T18:57:26.164Z,48.60
2018-05-04T18:59:53.646Z,48.70
2018-05-04T19:02:27.470Z,49.30
2018-05-04T19:04:54.960Z,49.30
2018-05-04T19:07:22.429Z,49.80
2018-05-04T19:09:49.908Z,50.10
2018-05-04T19:12:17.361Z,50.50
2018-05-04T19:14:44.856Z,50.70
2018-05-04T19:17:12.336Z,51.00
2018-05-04T19:19:39.880Z,51.70
2018-05-04T19:22:08.675Z,53.00
2018-05-04T19:24:36.117Z,53.00
2018-05-04T19:27:03.620Z,53.20
2018-05-04T19:29:31.081Z,52.90
2018-05-04T19:31:58.583Z,53.60
2018-05-04T19:34:26.872Z,53.70
2018-05-04T19:36:54.284Z,53.70
2018-05-04T19:39:21.760Z,54.30
2018-05-04T19:41:49.240Z,54.30
2018-05-04T19:44:16.852Z,54.20
2018-05-04T19:46:44.326Z,54.60
2018-05-04T19:49:11.776Z,56.00
2018-05-04T19:51:39.273Z,55.60
2018-05-04T19:54:06.755Z,55.80
2018-05-04T19:56:34.212Z,55.80
2018-05-04T19:59:01.744Z,56.30
2018-05-04T20:01:29.916Z,56.70
2018-05-04T20:03:58.160Z,57.50
2018-05-04T20:06:25.620Z,57.30
2018-05-04T20:08:53.873Z,57.70
2018-05-04T20:11:21.343Z,57.70
2018-05-04T20:13:48.812Z,58.00
2018-05-04T20:16:17.144Z,57.70
2018-05-04T20:18:44.628Z,57.70
2018-05-04T20:21:12.109Z,57.40
2018-05-04T20:23:39.558Z,58.40
2018-05-04T20:26:07.813Z,58.30
2018-05-04T20:28:35.289Z,58.20
2018-05-04T20:31:02.745Z,58.30
2018-05-04T20:33:30.988Z,58.20
2018-05-04T20:35:58.450Z,58.20
2018-05-04T20:38:25.915Z,58.20
2018-05-04T20:40:53.363Z,58.30
2018-05-04T20:43:20.847Z,58.30
2018-05-04T20:45:48.296Z,58.70
2018-05-04T20:48:15.747Z,58.90
2018-05-04T20:50:43.212Z,59.30
2018-05-04T20:53:10.676Z,59.50
2018-05-04T20:55:38.122Z,59.40
2018-05-04T20:58:05.588Z,60.10
2018-05-04T21:00:33.056Z,59.50
2018-05-04T21:03:00.520Z,59.40
2018-05-04T21:05:27.991Z,59.30
2018-05-04T21:07:55.468Z,59.70
2018-05-04T21:10:22.928Z,59.70
2018-05-04T21:12:50.432Z,59.40
2018-05-04T21:15:17.890Z,59.20
2018-05-04T21:17:45.346Z,59.50
2018-05-04T21:20:12.809Z,59.80
2018-05-04T21:22:41.023Z,60.00
2018-05-04T21:25:08.461Z,59.90
2018-05-04T21:27:35.963Z,59.90
2018-05-04T21:30:03.453Z,59.70
2018-05-04T21:32:31.696Z,60.60
2018-05-04T21:34:59.147Z,60.40
2018-05-04T21:37:26.644Z,60.70
2018-05-04T21:39:54.872Z,61.40
2018-05-04T21:42:22.348Z,61.40
2018-05-04T21:44:49.881Z,61.20
2018-05-04T21:47:17.290Z,61.40
2018-05-04T21:49:44.742Z,61.90
2018-05-04T21:52:12.203Z,61.80
2018-05-04T21:54:40.433Z,62.00
2018-05-04T21:57:07.911Z,62.30
2018-05-04T21:59:35.364Z,62.40
2018-05-04T22:02:02.908Z,62.50
2018-05-04T22:04:30.364Z,62.50
2018-05-04T22:06:57.825Z,62.80
2018-05-04T22:09:26.054Z,63.10
2018-05-04T22:11:53.504Z,63.10
2018-05-04T22:14:21.747Z,63.60
2018-05-04T22:16:49.221Z,63.70
2018-05-04T22:19:16.717Z,63.80
2018-05-04T22:21:44.165Z,65.00
2018-05-04T22:24:11.616Z,64.30
2018-05-04T22:29:12.848Z,65.00
2018-05-04T22:31:40.320Z,65.20
2018-05-04T22:34:07.776Z,65.60
2018-05-04T22:36:36.037Z,66.00
2018-05-04T22:39:03.493Z,65.90
2018-05-04T22:41:30.976Z,66.30
2018-05-04T22:43:58.444Z,66.30
2018-05-04T22:46:26.696Z,66.70
2018-05-04T22:48:54.142Z,66.70
2018-05-04T22:51:21.615Z,67.00
2018-05-04T22:53:49.834Z,67.60
2018-05-04T22:56:18.090Z,67.50
2018-05-04T22:58:45.568Z,67.50
2018-05-04T23:01:13.023Z,67.80
2018-05-04T23:03:40.515Z,67.90
2018-05-04T23:06:07.966Z,68.10
2018-05-04T23:08:35.439Z,68.00
2018-05-04T23:11:02.906Z,68.30
2018-05-04T23:13:31.147Z,68.80
2018-05-04T23:15:58.612Z,68.80
2018-05-04T23:18:26.169Z,69.00
2018-05-04T23:20:53.591Z,69.20
2018-05-04T23:23:21.048Z,69.50
2018-05-04T23:25:48.524Z,69.80
2018-05-04T23:28:15.989Z,69.80
2018-05-04T23:30:43.476Z,69.80
2018-05-04T23:33:11.700Z,70.30
2018-05-04T23:35:39.268Z,70.30
2018-05-04T23:38:06.708Z,70.40
2018-05-04T23:40:34.300Z,70.50
2018-05-04T23:43:01.745Z,70.60
2018-05-04T23:45:29.215Z,70.70
2018-05-04T23:47:56.680Z,70.90
2018-05-04T23:50:24.176Z,71.10
2018-05-04T23:52:51.655Z,71.40
2018-05-04T23:55:19.112Z,71.30
2018-05-04T23:57:46.588Z,71.70
